createdAt,value
2022-08-05T00:00:50.357Z,17.53
2022-08-05T00:06:04.935Z,17.56
2022-08-05T00:11:20.537Z,17.55
2022-08-05T00:16:35.548Z,17.50
2022-08-05T00:21:39.412Z,17.42
2022-08-05T00:26:50.705Z,17.33
2022-08-05T00:32:10.996Z,17.24
2022-08-05T00:37:17.347Z,17.14
2022-08-05T00:42:32.112Z,17.11
2022-08-05T00:47:57.404Z,17.11
2022-08-05T00:52:58.623Z,17.06
2022-08-05T00:58:01.614Z,17.00
2022-08-05T01:03:08.123Z,16.92
2022-08-05T01:08:30.267Z,16.82
2022-08-05T01:13:57.997Z,16.69
2022-08-05T01:19:30.430Z,16.57
2022-08-05T01:24:52.128Z,16.44
2022-08-05T01:30:02.217Z,16.31
2022-08-05T01:35:11.396Z,16.22
2022-08-05T01:40:35.061Z,16.14
2022-08-05T01:45:43.002Z,16.06
2022-08-05T01:50:51.143Z,16.05
2022-08-05T01:55:58.936Z,16.06
2022-08-05T02:01:08.086Z,16.08
2022-08-05T02:06:33.799Z,16.06
2022-08-05T02:11:48.133Z,16.00
2022-08-05T02:16:58.366Z,15.92
2022-08-05T02:22:25.875Z,15.83
2022-08-05T02:27:59.810Z,15.74
2022-08-05T02:33:00.342Z,15.66
2022-08-05T02:38:05.264Z,15.65
2022-08-05T02:43:14.273Z,15.66
2022-08-05T02:48:19.787Z,15.69
2022-08-05T02:53:39.005Z,15.70
2022-08-05T02:58:44.062Z,15.71
2022-08-05T03:04:02.613Z,15.69
2022-08-05T03:09:07.711Z,15.66
2022-08-05T03:14:13.306Z,15.69
2022-08-05T03:19:32.964Z,15.75
2022-08-05T03:24:37.681Z,15.81
2022-08-05T03:29:45.343Z,15.84
2022-08-05T03:35:04.563Z,15.84
2022-08-05T03:40:12.062Z,15.83
2022-08-05T03:45:21.363Z,15.81
2022-08-05T03:50:33.871Z,15.80
2022-08-05T03:56:05.719Z,15.86
2022-08-05T04:01:11.242Z,15.98
2022-08-05T04:06:18.097Z,16.11
2022-08-05T04:11:23.592Z,16.21
2022-08-05T04:16:45.723Z,16.30
2022-08-05T04:22:08.236Z,16.39
2022-08-05T04:27:15.320Z,16.49
2022-08-05T04:32:30.670Z,16.61
2022-08-05T04:38:02.285Z,16.81
2022-08-05T04:42:57.759Z,17.04
2022-08-05T04:48:04.891Z,17.26
2022-08-05T04:53:09.295Z,17.48
2022-08-05T04:58:14.951Z,17.70
2022-08-05T05:03:24.466Z,17.94
2022-08-05T05:08:30.080Z,18.19
2022-08-05T05:13:43.004Z,18.48
2022-08-05T05:19:08.854Z,18.81
2022-08-05T05:24:09.352Z,19.14
2022-08-05T05:29:14.380Z,19.43
2022-08-05T05:34:22.537Z,19.69
2022-08-05T05:39:31.680Z,19.96
2022-08-05T05:44:45.899Z,20.24
2022-08-05T05:49:52.514Z,20.55
2022-08-05T05:55:01.119Z,20.84
2022-08-05T06:00:10.413Z,21.13
2022-08-05T06:05:16.779Z,21.45
2022-08-05T06:10:19.957Z,21.78
2022-08-05T06:16:27.592Z,22.10
2022-08-05T06:20:49.231Z,22.44
2022-08-05T06:26:13.927Z,22.77
2022-08-05T06:31:30.436Z,23.14
2022-08-05T06:36:53.498Z,23.46
2022-08-05T06:41:59.154Z,23.77
2022-08-05T06:47:02.243Z,24.09
2022-08-05T06:52:05.743Z,24.39
2022-08-05T06:57:57.836Z,24.68
2022-08-05T07:02:32.365Z,24.95
2022-08-05T07:07:43.901Z,25.24
2022-08-05T07:13:05.693Z,25.50
2022-08-05T07:18:10.323Z,25.76
2022-08-05T07:23:26.082Z,26.01
2022-08-05T07:28:29.581Z,26.24
2022-08-05T07:33:36.420Z,26.43
2022-08-05T07:38:42.797Z,26.60
2022-08-05T07:43:47.746Z,26.79
2022-08-05T07:49:02.069Z,26.96
2022-08-05T07:54:10.113Z,27.15
2022-08-05T07:59:13.160Z,27.27
2022-08-05T08:04:17.269Z,27.48
2022-08-05T08:09:37.435Z,27.72
2022-08-05T08:14:46.857Z,27.91
2022-08-05T08:20:42.778Z,28.13
2022-08-05T08:25:16.332Z,28.33
2022-08-05T08:30:33.971Z,28.52
2022-08-05T08:35:53.832Z,28.70
2022-08-05T08:41:08.726Z,28.90
2022-08-05T08:46:16.164Z,29.03
2022-08-05T08:52:01.987Z,29.12
2022-08-05T08:56:47.383Z,29.23
2022-08-05T09:01:57.301Z,29.26
2022-08-05T09:07:10.649Z,29.37
2022-08-05T09:12:27.417Z,29.48
2022-08-05T09:17:41.106Z,29.61
2022-08-05T09:23:05.575Z,29.74
2022-08-05T09:28:23.503Z,29.82
2022-08-05T09:33:35.218Z,29.97
2022-08-05T09:38:38.110Z,30.08
2022-08-05T09:43:42.302Z,30.24
2022-08-05T09:49:07.039Z,30.33
2022-08-05T09:54:09.512Z,30.39
2022-08-05T09:59:17.030Z,30.49
2022-08-05T10:04:28.683Z,30.58
2022-08-05T10:09:44.853Z,30.65
2022-08-05T10:14:48.234Z,30.66
2022-08-05T10:20:04.041Z,30.55
2022-08-05T10:25:14.350Z,30.60
2022-08-05T10:31:19.959Z,30.64
2022-08-05T10:35:44.239Z,30.67
2022-08-05T10:40:58.167Z,30.79
2022-08-05T10:46:10.489Z,30.93
2022-08-05T10:51:22.475Z,30.96
2022-08-05T10:56:26.139Z,31.03
2022-08-05T11:01:55.336Z,31.12
2022-08-05T11:07:06.766Z,31.18
2022-08-05T11:12:24.682Z,31.15
2022-08-05T11:18:00.087Z,31.22
2022-08-05T11:22:54.009Z,31.23
2022-08-05T11:28:11.657Z,31.34
2022-08-05T11:33:43.986Z,31.48
2022-08-05T11:38:51.760Z,31.56
2022-08-05T11:44:05.902Z,31.68
2022-08-05T11:49:16.297Z,31.91
2022-08-05T11:54:33.633Z,32.02
2022-08-05T11:59:49.814Z,32.12
2022-08-05T12:04:59.528Z,32.21
2022-08-05T12:10:09.089Z,32.42
2022-08-05T12:15:37.939Z,32.58
2022-08-05T12:20:41.584Z,32.69
2022-08-05T12:25:56.796Z,32.77
2022-08-05T12:31:01.955Z,32.78
2022-08-05T12:36:07.880Z,32.90
2022-08-05T12:41:16.346Z,33.10
2022-08-05T12:46:31.426Z,33.18
2022-08-05T12:52:14.355Z,33.36
2022-08-05T12:57:15.448Z,33.52
2022-08-05T13:02:30.410Z,33.65
2022-08-05T13:07:59.253Z,33.73
2022-08-05T13:12:58.462Z,33.94
2022-08-05T13:18:02.085Z,34.28
2022-08-05T13:23:07.340Z,34.61
2022-08-05T13:28:10.603Z,34.72
2022-08-05T13:33:14.218Z,34.69
2022-08-05T13:38:28.307Z,35.00
2022-08-05T13:43:45.723Z,35.36
2022-08-05T13:49:00.734Z,35.55
2022-08-05T13:54:12.579Z,35.39
2022-08-05T13:59:19.471Z,35.26
2022-08-05T14:04:42.358Z,35.18
2022-08-05T14:09:46.364Z,35.05
2022-08-05T14:14:49.816Z,35.08
2022-08-05T14:20:00.851Z,35.01
2022-08-05T14:25:21.408Z,35.10
2022-08-05T14:30:28.172Z,36.01
2022-08-05T14:35:36.916Z,36.64
2022-08-05T14:40:54.293Z,37.44
2022-08-05T14:45:56.984Z,38.40
2022-08-05T14:50:59.679Z,38.38
2022-08-05T14:56:06.043Z,38.50
2022-08-05T15:01:11.195Z,38.47
2022-08-05T15:06:19.065Z,38.16
2022-08-05T15:11:51.651Z,37.79
2022-08-05T15:16:56.446Z,38.06
2022-08-05T15:22:01.278Z,39.69
2022-08-05T15:27:04.471Z,40.14
2022-08-05T15:32:12.043Z,40.95
2022-08-05T15:37:19.375Z,41.75
2022-08-05T15:42:54.748Z,42.16
2022-08-05T15:47:59.737Z,42.80
2022-08-05T15:53:05.770Z,43.15
2022-08-05T15:58:16.503Z,43.02
2022-08-05T16:03:19.818Z,43.02
2022-08-05T16:08:23.984Z,43.35
2022-08-05T16:13:34.498Z,43.59
2022-08-05T16:18:52.268Z,42.90
2022-08-05T16:23:58.040Z,42.46
2022-08-05T16:29:04.365Z,41.16
2022-08-05T16:34:11.120Z,39.77
2022-08-05T16:39:14.284Z,40.73
2022-08-05T16:44:18.262Z,42.09
2022-08-05T16:49:23.875Z,42.73
2022-08-05T16:54:31.913Z,42.62
2022-08-05T16:59:35.895Z,42.48
2022-08-05T17:04:58.659Z,42.58
2022-08-05T17:10:01.416Z,41.20
2022-08-05T17:15:07.492Z,38.59
2022-08-05T17:20:14.568Z,36.73
2022-08-05T17:25:22.192Z,35.70
2022-08-05T17:30:42.501Z,35.90
2022-08-05T17:36:07.423Z,36.21
2022-08-05T17:42:16.822Z,35.86
2022-08-05T17:46:35.905Z,35.51
2022-08-05T17:51:40.119Z,34.72
2022-08-05T17:56:44.657Z,33.43
2022-08-05T18:01:51.790Z,32.31
2022-08-05T18:06:54.765Z,31.40
2022-08-05T18:12:03.617Z,30.57
2022-08-05T18:17:06.982Z,29.79
2022-08-05T18:22:36.188Z,29.01
2022-08-05T18:27:52.255Z,28.30
2022-08-05T18:33:00.770Z,27.68
2022-08-05T18:38:03.992Z,27.14
2022-08-05T18:43:09.133Z,26.66
2022-08-05T18:48:31.619Z,26.21
2022-08-05T18:53:45.950Z,25.78
2022-08-05T18:58:55.002Z,25.38
2022-08-05T19:04:05.498Z,25.00
2022-08-05T19:09:08.333Z,24.65
2022-08-05T19:14:59.449Z,24.31
2022-08-05T19:19:33.741Z,23.98
2022-08-05T19:24:36.974Z,23.76
2022-08-05T19:29:58.336Z,23.60
2022-08-05T19:35:06.408Z,23.46
2022-08-05T19:40:10.813Z,23.29
2022-08-05T19:45:14.578Z,23.15
2022-08-05T19:50:17.495Z,23.00
2022-08-05T19:56:14.237Z,22.86
2022-08-05T20:00:43.148Z,22.72
2022-08-05T20:05:51.478Z,22.59
2022-08-05T20:10:55.231Z,22.46
2022-08-05T20:15:58.033Z,22.33
2022-08-05T20:21:04.505Z,22.19
2022-08-05T20:26:16.474Z,22.04
2022-08-05T20:31:22.868Z,21.88
2022-08-05T20:36:31.328Z,21.75
2022-08-05T20:41:44.439Z,21.62
2022-08-05T20:46:48.186Z,21.59
2022-08-05T20:51:54.222Z,21.63
2022-08-05T20:56:57.979Z,21.67
2022-08-05T21:02:00.717Z,21.65
2022-08-05T21:07:04.600Z,21.56
2022-08-05T21:12:11.611Z,21.49
2022-08-05T21:17:15.389Z,21.43
2022-08-05T21:22:21.763Z,21.40
2022-08-05T21:27:27.419Z,21.40
2022-08-05T21:32:30.540Z,21.48
2022-08-05T21:37:35.049Z,21.59
2022-08-05T21:42:45.149Z,21.68
2022-08-05T21:47:57.208Z,21.69
2022-08-05T21:53:08.409Z,21.59
2022-08-05T21:58:20.648Z,21.80
2022-08-05T22:03:52.185Z,22.06
2022-08-05T22:08:56.242Z,22.27
2022-08-05T22:14:05.829Z,22.34
2022-08-05T22:20:01.116Z,22.29
2022-08-05T22:25:04.132Z,22.17
2022-08-05T22:30:13.973Z,22.03
2022-08-05T22:35:16.724Z,21.88
2022-08-05T22:40:20.409Z,21.76
2022-08-05T22:45:26.260Z,21.67
2022-08-05T22:50:29.010Z,21.57
2022-08-05T22:55:56.748Z,21.47
2022-08-05T23:00:54.676Z,21.36
2022-08-05T23:05:59.981Z,21.29
2022-08-05T23:11:04.098Z,21.23
2022-08-05T23:16:06.967Z,21.19
2022-08-05T23:21:11.102Z,21.14
2022-08-05T23:26:20.089Z,21.05
2022-08-05T23:31:24.434Z,20.92
2022-08-05T23:36:28.318Z,20.82
2022-08-05T23:41:41.167Z,20.73
2022-08-05T23:46:51.775Z,20.65
2022-08-05T23:52:13.051Z,20.54
2022-08-05T23:57:19.477Z,20.42
